createdAt,value
2016-07-01T00:00:48.998Z,1002.78
2016-07-01T00:01:49.035Z,1002.74
2016-07-01T00:02:49.050Z,1002.78
2016-07-01T00:03:49.080Z,1002.76
2016-07-01T00:04:49.103Z,1002.78
2016-07-01T00:05:49.142Z,1002.75
2016-07-01T00:06:49.365Z,1002.73
2016-07-01T00:07:49.190Z,1002.76
2016-07-01T00:08:49.217Z,1002.77
2016-07-01T00:09:49.243Z,1002.76
2016-07-01T00:10:49.275Z,1002.82
2016-07-01T00:11:49.295Z,1002.8
2016-07-01T00:12:49.326Z,1002.82
2016-07-01T00:13:49.355Z,1002.79
2016-07-01T00:14:49.382Z,1002.8
2016-07-01T00:15:49.413Z,1002.8
2016-07-01T00:16:49.435Z,1002.84
2016-07-01T00:17:49.470Z,1002.81
2016-07-01T00:18:49.490Z,1002.81
2016-07-01T00:19:49.512Z,1002.81
2016-07-01T00:20:49.543Z,1002.81
2016-07-01T00:21:49.575Z,1002.85
2016-07-01T00:22:49.597Z,1002.83
2016-07-01T00:23:49.635Z,1002.85
2016-07-01T00:24:49.654Z,1002.86
2016-07-01T00:25:49.684Z,1002.84
2016-07-01T00:26:49.707Z,1002.84
2016-07-01T00:27:49.738Z,1002.86
2016-07-01T00:28:49.762Z,1002.92
2016-07-01T00:29:49.806Z,1002.96
2016-07-01T00:30:49.822Z,1002.99
2016-07-01T00:31:49.857Z,1002.99
2016-07-01T00:32:49.874Z,1002.97
2016-07-01T00:33:49.904Z,1002.99
2016-07-01T00:34:49.933Z,1002.96
2016-07-01T00:35:49.958Z,1003.01
2016-07-01T00:36:49.984Z,1003
2016-07-01T00:37:50.016Z,1003.01
2016-07-01T00:38:50.035Z,1002.98
2016-07-01T00:39:50.070Z,1002.99
2016-07-01T00:40:50.091Z,1003.02
2016-07-01T00:41:50.123Z,1003.02
2016-07-01T00:42:50.151Z,1003.05
2016-07-01T00:43:50.182Z,1003.02
2016-07-01T00:44:50.199Z,1002.99
2016-07-01T00:45:50.231Z,1003
2016-07-01T00:46:50.254Z,1002.97
2016-07-01T00:47:50.291Z,1002.91
2016-07-01T00:48:50.309Z,1002.88
2016-07-01T00:49:50.339Z,1002.93
2016-07-01T00:50:50.367Z,1002.91
2016-07-01T00:51:50.393Z,1002.83
2016-07-01T00:52:50.419Z,1002.87
2016-07-01T00:53:50.447Z,1002.86
2016-07-01T00:54:50.470Z,1002.85
2016-07-01T00:55:50.511Z,1002.86
2016-07-01T00:56:50.526Z,1002.85
2016-07-01T00:57:50.564Z,1002.84
2016-07-01T00:58:50.581Z,1002.86
2016-07-01T00:59:50.611Z,1002.85
2016-07-01T01:00:50.637Z,1002.88
2016-07-01T01:01:50.667Z,1002.9
2016-07-01T01:02:50.689Z,1002.87
2016-07-01T01:03:50.722Z,1002.9
2016-07-01T01:04:50.750Z,1002.88
2016-07-01T01:05:50.779Z,1002.9
2016-07-01T01:06:50.795Z,1002.85
2016-07-01T01:07:50.824Z,1002.91
2016-07-01T01:08:50.855Z,1002.93
2016-07-01T01:09:50.878Z,1002.94
2016-07-01T01:10:50.904Z,1002.93
2016-07-01T01:11:50.936Z,1002.93
2016-07-01T01:12:50.959Z,1002.92
2016-07-01T01:13:50.986Z,1002.96
2016-07-01T01:14:51.019Z,1002.94
2016-07-01T01:15:51.050Z,1002.89
2016-07-01T01:16:51.068Z,1002.92
2016-07-01T01:17:51.097Z,1002.94
2016-07-01T01:18:51.122Z,1002.9
2016-07-01T01:19:51.149Z,1002.88
2016-07-01T01:20:51.174Z,1002.88
2016-07-01T01:21:51.205Z,1002.86
2016-07-01T01:22:51.226Z,1002.85
2016-07-01T01:23:51.265Z,1002.83
2016-07-01T01:24:51.278Z,1002.85
2016-07-01T01:25:51.320Z,1002.87
2016-07-01T01:26:51.334Z,1002.89
2016-07-01T01:27:51.366Z,1002.89
2016-07-01T01:28:51.387Z,1002.88
2016-07-01T01:29:51.416Z,1002.85
2016-07-01T01:30:51.440Z,1002.87
2016-07-01T01:31:51.469Z,1002.86
2016-07-01T01:32:51.496Z,1002.82
2016-07-01T01:33:51.522Z,1002.85
2016-07-01T01:34:51.554Z,1002.84
2016-07-01T01:35:51.575Z,1002.85
2016-07-01T01:36:51.604Z,1002.84
2016-07-01T01:37:51.684Z,1002.83
2016-07-01T01:38:51.657Z,1002.85
2016-07-01T01:39:51.684Z,1002.82
2016-07-01T01:40:51.714Z,1002.81
2016-07-01T01:41:51.741Z,1002.82
2016-07-01T01:42:51.765Z,1002.81
2016-07-01T01:43:51.790Z,1002.82
2016-07-01T01:44:51.822Z,1002.76
2016-07-01T01:45:51.859Z,1002.8
2016-07-01T01:46:51.873Z,1002.81
2016-07-01T01:47:51.894Z,1002.86
2016-07-01T01:48:51.923Z,1002.86
2016-07-01T01:49:51.954Z,1002.82
2016-07-01T01:50:51.977Z,1002.82
2016-07-01T01:51:52.007Z,1002.8
2016-07-01T01:52:52.033Z,1002.81
2016-07-01T01:53:52.065Z,1002.82
2016-07-01T01:54:52.084Z,1002.82
2016-07-01T01:55:52.117Z,1002.8
2016-07-01T01:56:52.142Z,1002.8
2016-07-01T01:57:52.167Z,1002.82
2016-07-01T01:58:52.194Z,1002.78
2016-07-01T01:59:52.225Z,1002.82
2016-07-01T02:00:52.251Z,1002.87
2016-07-01T02:01:52.285Z,1002.82
2016-07-01T02:02:52.299Z,1002.81
2016-07-01T02:03:52.326Z,1002.87
2016-07-01T02:04:52.351Z,1002.85
2016-07-01T02:05:52.395Z,1002.85
2016-07-01T02:06:52.409Z,1002.88
2016-07-01T02:07:52.461Z,1002.87
2016-07-01T02:08:52.458Z,1002.87
2016-07-01T02:09:52.485Z,1002.9
2016-07-01T02:10:52.515Z,1002.89
2016-07-01T02:11:52.544Z,1002.9
2016-07-01T02:12:52.565Z,1002.86
2016-07-01T02:13:52.604Z,1002.85
2016-07-01T02:14:52.615Z,1002.84
2016-07-01T02:15:52.649Z,1002.89
2016-07-01T02:16:52.668Z,1002.88
2016-07-01T02:17:52.696Z,1002.87
2016-07-01T02:18:52.726Z,1002.88
2016-07-01T02:19:52.751Z,1002.9
2016-07-01T02:20:52.787Z,1002.91
2016-07-01T02:21:52.808Z,1002.94
2016-07-01T02:22:52.831Z,1002.98
2016-07-01T02:23:52.853Z,1002.95
2016-07-01T02:24:52.883Z,1003.01
2016-07-01T02:25:52.920Z,1003.02
2016-07-01T02:26:52.935Z,1002.99
2016-07-01T02:27:52.970Z,1002.99
2016-07-01T02:28:52.992Z,1002.97
2016-07-01T02:29:53.013Z,1002.94
2016-07-01T02:30:53.042Z,1002.96
2016-07-01T02:31:53.076Z,1002.96
2016-07-01T02:32:53.094Z,1002.99
2016-07-01T02:33:53.124Z,1002.97
2016-07-01T02:34:53.147Z,1002.99
2016-07-01T02:35:53.176Z,1003.02
2016-07-01T02:36:53.206Z,1003.02
2016-07-01T02:37:53.284Z,1003
2016-07-01T02:38:53.253Z,1003.04
2016-07-01T02:39:53.277Z,1003.02
2016-07-01T02:40:53.307Z,1003.06
2016-07-01T02:41:53.346Z,1002.99
2016-07-01T02:42:53.367Z,1003.04
2016-07-01T02:43:53.392Z,1003.04
2016-07-01T02:44:53.408Z,1003.03
2016-07-01T02:45:53.439Z,1003.05
2016-07-01T02:46:53.463Z,1003.04
2016-07-01T02:47:53.487Z,1003.03
2016-07-01T02:48:53.511Z,1003.04
2016-07-01T02:49:53.538Z,1003.08
2016-07-01T02:50:53.575Z,1003.09
2016-07-01T02:51:53.596Z,1003.11
2016-07-01T02:52:53.623Z,1003.14
2016-07-01T02:53:53.648Z,1003.16
2016-07-01T02:54:53.669Z,1003.15
2016-07-01T02:55:53.705Z,1003.16
2016-07-01T02:56:53.726Z,1003.13
2016-07-01T02:57:53.746Z,1003.16
2016-07-01T02:58:53.784Z,1003.15
2016-07-01T02:59:53.809Z,1003.18
2016-07-01T03:00:53.825Z,1003.14
2016-07-01T03:01:53.861Z,1003.19
2016-07-01T03:02:53.882Z,1003.22
2016-07-01T03:03:53.930Z,1003.22
2016-07-01T03:04:53.936Z,1003.24
2016-07-01T03:05:53.970Z,1003.16
2016-07-01T03:06:53.989Z,1003.22
2016-07-01T03:07:54.039Z,1003.22
2016-07-01T03:08:54.057Z,1003.22
2016-07-01T03:09:54.081Z,1003.24
2016-07-01T03:10:54.091Z,1003.25
2016-07-01T03:11:54.140Z,1003.26
2016-07-01T03:12:54.157Z,1003.27
2016-07-01T03:13:54.174Z,1003.3
2016-07-01T03:14:54.196Z,1003.29
2016-07-01T03:15:54.219Z,1003.3
2016-07-01T03:16:54.250Z,1003.34
2016-07-01T03:17:54.278Z,1003.33
2016-07-01T03:18:54.299Z,1003.35
2016-07-01T03:19:54.328Z,1003.34
2016-07-01T03:20:54.352Z,1003.37
2016-07-01T03:21:54.387Z,1003.41
2016-07-01T03:22:54.406Z,1003.44
2016-07-01T03:23:54.437Z,1003.41
2016-07-01T03:24:54.455Z,1003.41
2016-07-01T03:25:54.485Z,1003.4
2016-07-01T03:26:54.509Z,1003.42
2016-07-01T03:27:54.543Z,1003.43
2016-07-01T03:28:54.565Z,1003.45
2016-07-01T03:29:54.587Z,1003.44
2016-07-01T03:30:54.614Z,1003.43
2016-07-01T03:31:54.637Z,1003.42
2016-07-01T03:32:54.669Z,1003.42
2016-07-01T03:33:54.689Z,1003.38
2016-07-01T03:34:54.715Z,1003.38
2016-07-01T03:35:54.752Z,1003.36
2016-07-01T03:36:54.764Z,1003.36
2016-07-01T03:37:54.799Z,1003.34
2016-07-01T03:38:54.824Z,1003.35
2016-07-01T03:39:54.850Z,1003.33
2016-07-01T03:40:54.880Z,1003.33
2016-07-01T03:41:54.903Z,1003.32
2016-07-01T03:42:54.923Z,1003.3
2016-07-01T03:43:54.967Z,1003.28
2016-07-01T03:44:54.971Z,1003.3
2016-07-01T03:45:54.998Z,1003.26
2016-07-01T03:46:55.048Z,1003.28
2016-07-01T03:47:55.051Z,1003.24
2016-07-01T03:48:55.078Z,1003.25
2016-07-01T03:49:55.110Z,1003.26
2016-07-01T03:50:55.129Z,1003.23
2016-07-01T03:51:55.181Z,1003.24
2016-07-01T03:52:55.181Z,1003.23
2016-07-01T03:53:55.205Z,1003.27
2016-07-01T03:54:55.231Z,1003.24
2016-07-01T03:55:55.266Z,1003.25
2016-07-01T03:56:55.285Z,1003.26
2016-07-01T03:57:55.316Z,1003.25
2016-07-01T03:58:55.334Z,1003.28
2016-07-01T03:59:55.365Z,1003.3
2016-07-01T04:00:55.390Z,1003.25
2016-07-01T04:01:55.422Z,1003.28
2016-07-01T04:02:55.437Z,1003.24
2016-07-01T04:03:55.466Z,1003.23
2016-07-01T04:04:55.491Z,1003.21
2016-07-01T04:05:55.519Z,1003.23
2016-07-01T04:06:55.546Z,1003.24
2016-07-01T04:07:55.578Z,1003.22
2016-07-01T04:08:55.598Z,1003.27
2016-07-01T04:09:55.623Z,1003.27
2016-07-01T04:10:55.682Z,1003.24
2016-07-01T04:11:55.673Z,1003.24
2016-07-01T04:12:55.694Z,1003.26
2016-07-01T04:13:55.719Z,1003.27
2016-07-01T04:14:55.747Z,1003.27
2016-07-01T04:15:55.775Z,1003.2
2016-07-01T04:16:55.806Z,1003.25
2016-07-01T04:17:55.830Z,1003.25
2016-07-01T04:18:55.850Z,1003.25
2016-07-01T04:19:55.880Z,1003.27
2016-07-01T04:20:55.903Z,1003.23
2016-07-01T04:21:55.931Z,1003.24
2016-07-01T04:22:55.957Z,1003.27
2016-07-01T04:23:55.991Z,1003.29
2016-07-01T04:24:56.003Z,1003.33
2016-07-01T04:25:56.043Z,1003.33
2016-07-01T04:26:56.063Z,1003.34
2016-07-01T04:27:56.088Z,1003.39
2016-07-01T04:28:56.108Z,1003.42
2016-07-01T04:29:56.135Z,1003.41
2016-07-01T04:30:56.161Z,1003.47
2016-07-01T04:31:56.187Z,1003.45
2016-07-01T04:32:56.210Z,1003.47
2016-07-01T04:33:56.239Z,1003.44
2016-07-01T04:34:56.281Z,1003.46
2016-07-01T04:35:56.292Z,1003.45
2016-07-01T04:36:56.313Z,1003.44
2016-07-01T04:37:56.363Z,1003.45
2016-07-01T04:38:56.392Z,1003.46
2016-07-01T04:39:56.391Z,1003.46
2016-07-01T04:40:56.414Z,1003.46
2016-07-01T04:41:56.458Z,1003.41
2016-07-01T04:42:56.466Z,1003.47
2016-07-01T04:43:56.487Z,1003.47
2016-07-01T04:44:56.515Z,1003.49
2016-07-01T04:45:56.550Z,1003.48
2016-07-01T04:46:56.566Z,1003.51
2016-07-01T04:47:56.601Z,1003.51
2016-07-01T04:48:56.631Z,1003.48
2016-07-01T04:49:56.644Z,1003.55
2016-07-01T04:50:56.670Z,1003.51
2016-07-01T04:51:56.695Z,1003.5
2016-07-01T04:52:56.721Z,1003.52
2016-07-01T04:53:56.755Z,1003.54
2016-07-01T04:54:56.773Z,1003.55
2016-07-01T04:55:56.804Z,1003.55
2016-07-01T04:56:56.823Z,1003.61
2016-07-01T04:57:56.847Z,1003.6
2016-07-01T04:58:56.875Z,1003.58
2016-07-01T04:59:56.900Z,1003.56
2016-07-01T05:00:56.928Z,1003.58
2016-07-01T05:01:56.963Z,1003.55
2016-07-01T05:02:56.985Z,1003.59
2016-07-01T05:03:57.007Z,1003.59
2016-07-01T05:04:57.030Z,1003.6
2016-07-01T05:05:57.062Z,1003.63
2016-07-01T05:06:57.081Z,1003.61
2016-07-01T05:07:57.110Z,1003.61
2016-07-01T05:08:57.128Z,1003.63
2016-07-01T05:09:57.173Z,1003.6
2016-07-01T05:10:57.183Z,1003.63
2016-07-01T05:11:57.212Z,1003.65
2016-07-01T05:12:57.233Z,1003.6
2016-07-01T05:13:57.271Z,1003.64
2016-07-01T05:14:57.290Z,1003.64
2016-07-01T05:15:57.310Z,1003.62
2016-07-01T05:16:57.339Z,1003.65
2016-07-01T05:17:57.364Z,1003.64
2016-07-01T05:18:57.383Z,1003.61
2016-07-01T05:19:57.410Z,1003.6
2016-07-01T05:20:57.445Z,1003.61
2016-07-01T05:21:57.469Z,1003.61
2016-07-01T05:22:57.487Z,1003.63
2016-07-01T05:23:57.522Z,1003.58
2016-07-01T05:24:57.539Z,1003.57
2016-07-01T05:25:57.568Z,1003.6
2016-07-01T05:26:57.591Z,1003.62
2016-07-01T05:27:57.627Z,1003.6
2016-07-01T05:28:57.643Z,1003.61
2016-07-01T05:29:57.665Z,1003.6
2016-07-01T05:30:57.693Z,1003.63
2016-07-01T05:31:57.718Z,1003.6
2016-07-01T05:32:57.754Z,1003.6
2016-07-01T05:33:57.770Z,1003.59
2016-07-01T05:34:57.798Z,1003.63
2016-07-01T05:35:57.826Z,1003.64
2016-07-01T05:36:57.848Z,1003.64
2016-07-01T05:37:57.929Z,1003.67
2016-07-01T05:38:57.903Z,1003.64
2016-07-01T05:39:57.922Z,1003.6
2016-07-01T05:40:57.950Z,1003.62
2016-07-01T05:41:57.977Z,1003.64
2016-07-01T05:42:57.997Z,1003.63
2016-07-01T05:43:58.023Z,1003.67
2016-07-01T05:44:58.050Z,1003.64
2016-07-01T05:45:58.078Z,1003.69
2016-07-01T05:46:58.115Z,1003.68
2016-07-01T05:47:58.132Z,1003.7
2016-07-01T05:48:58.155Z,1003.74
2016-07-01T05:49:58.186Z,1003.76
2016-07-01T05:50:58.207Z,1003.77
2016-07-01T05:51:58.235Z,1003.8
2016-07-01T05:52:58.258Z,1003.77
2016-07-01T05:53:58.281Z,1003.8
2016-07-01T05:54:58.310Z,1003.81
2016-07-01T05:55:58.337Z,1003.75
2016-07-01T05:56:58.359Z,1003.8
2016-07-01T05:57:58.385Z,1003.76
2016-07-01T05:58:58.411Z,1003.75
2016-07-01T05:59:58.441Z,1003.8
2016-07-01T06:00:58.466Z,1003.81
2016-07-01T06:01:58.489Z,1003.87
2016-07-01T06:02:58.514Z,1003.86
2016-07-01T06:03:58.539Z,1003.86
2016-07-01T06:04:58.566Z,1003.83
2016-07-01T06:05:58.592Z,1003.85
2016-07-01T06:06:58.614Z,1003.84
2016-07-01T06:07:58.639Z,1003.84
2016-07-01T06:08:58.668Z,1003.83
2016-07-01T06:09:58.690Z,1003.8
2016-07-01T06:10:58.721Z,1003.78
2016-07-01T06:11:58.745Z,1003.79
2016-07-01T06:12:58.775Z,1003.85
2016-07-01T06:13:58.794Z,1003.79
2016-07-01T06:14:58.821Z,1003.84
2016-07-01T06:15:58.849Z,1003.82
2016-07-01T06:16:58.870Z,1003.79
2016-07-01T06:17:58.904Z,1003.88
2016-07-01T06:18:58.928Z,1003.82
2016-07-01T06:19:58.952Z,1003.78
2016-07-01T06:20:58.976Z,1003.84
2016-07-01T06:21:59.612Z,1003.85
2016-07-01T06:22:59.030Z,1003.8
2016-07-01T06:23:59.060Z,1003.8
2016-07-01T06:24:59.094Z,1003.86
2016-07-01T06:25:59.102Z,1003.81
2016-07-01T06:26:59.130Z,1003.84
2016-07-01T06:27:59.379Z,1003.83
2016-07-01T06:28:59.189Z,1003.81
2016-07-01T06:29:59.210Z,1003.84
2016-07-01T06:30:59.235Z,1003.87
2016-07-01T06:31:59.259Z,1003.9
2016-07-01T06:32:59.289Z,1003.92
2016-07-01T06:33:59.314Z,1003.9
2016-07-01T06:34:59.341Z,1003.9
2016-07-01T06:35:59.366Z,1003.94
2016-07-01T06:36:59.391Z,1003.88
2016-07-01T06:37:59.418Z,1003.88
2016-07-01T06:38:59.441Z,1003.82
2016-07-01T06:39:59.471Z,1003.85
2016-07-01T06:40:59.494Z,1003.85
2016-07-01T06:41:59.522Z,1003.84
2016-07-01T06:42:59.555Z,1003.82
2016-07-01T06:43:59.571Z,1003.83
2016-07-01T06:44:59.598Z,1003.8
2016-07-01T06:45:59.625Z,1003.82
2016-07-01T06:46:59.649Z,1003.85
2016-07-01T06:47:59.677Z,1003.84
2016-07-01T06:48:59.703Z,1003.87
2016-07-01T06:49:59.730Z,1003.75
2016-07-01T06:50:59.754Z,1003.86
2016-07-01T06:51:59.782Z,1003.82
2016-07-01T06:52:59.819Z,1003.84
2016-07-01T06:53:59.832Z,1003.83
2016-07-01T06:54:59.856Z,1003.83
2016-07-01T06:55:59.897Z,1003.81
2016-07-01T06:56:59.913Z,1003.82
2016-07-01T06:57:59.939Z,1003.78
2016-07-01T06:58:59.964Z,1003.77
2016-07-01T06:59:59.991Z,1003.79
2016-07-01T07:01:00.015Z,1003.88
2016-07-01T07:02:00.038Z,1003.82
2016-07-01T07:03:00.069Z,1003.79
2016-07-01T07:04:00.090Z,1003.77
2016-07-01T07:05:00.118Z,1003.76
2016-07-01T07:06:00.146Z,1003.74
2016-07-01T07:07:00.178Z,1003.77
2016-07-01T07:08:00.210Z,1003.77
2016-07-01T07:09:00.225Z,1003.73
2016-07-01T07:10:00.262Z,1003.76
2016-07-01T07:11:00.299Z,1003.69
2016-07-01T07:12:00.302Z,1003.73
2016-07-01T07:13:00.330Z,1003.74
2016-07-01T07:14:00.356Z,1003.7
2016-07-01T07:15:00.382Z,1003.77
2016-07-01T07:16:00.410Z,1003.69
2016-07-01T07:17:00.433Z,1003.7
2016-07-01T07:18:00.467Z,1003.67
2016-07-01T07:19:00.486Z,1003.71
2016-07-01T07:20:00.518Z,1003.66
2016-07-01T07:21:00.543Z,1003.73
2016-07-01T07:22:00.566Z,1003.75
2016-07-01T07:23:00.590Z,1003.69
2016-07-01T07:24:00.625Z,1003.79
2016-07-01T07:25:00.645Z,1003.75
2016-07-01T07:26:00.675Z,1003.78
2016-07-01T07:27:00.701Z,1003.81
2016-07-01T07:28:00.728Z,1003.76
2016-07-01T07:29:00.857Z,1003.76
2016-07-01T07:30:00.877Z,1003.68
2016-07-01T07:31:00.864Z,1003.75
2016-07-01T07:32:00.878Z,1003.72
2016-07-01T07:33:00.884Z,1003.73
2016-07-01T07:34:00.890Z,1003.74
2016-07-01T07:35:01.034Z,1003.87
2016-07-01T07:36:01.048Z,1003.8
2016-07-01T07:37:00.971Z,1003.83
2016-07-01T07:38:01.143Z,1003.8
2016-07-01T07:39:01.090Z,1003.73
2016-07-01T07:40:01.127Z,1003.79
2016-07-01T07:41:01.154Z,1003.82
2016-07-01T07:42:01.141Z,1003.83
2016-07-01T07:43:01.150Z,1003.85
2016-07-01T07:44:01.166Z,1003.82
2016-07-01T07:45:01.183Z,1003.82
2016-07-01T07:46:01.219Z,1003.84
2016-07-01T07:47:01.240Z,1003.81
2016-07-01T07:48:01.258Z,1003.83
2016-07-01T07:49:01.289Z,1003.77
2016-07-01T07:50:01.315Z,1003.76
2016-07-01T07:51:01.341Z,1003.74
2016-07-01T07:52:01.371Z,1003.76
2016-07-01T07:53:01.394Z,1003.72
2016-07-01T07:54:01.430Z,1003.72
2016-07-01T07:55:01.467Z,1003.74
2016-07-01T07:56:01.478Z,1003.76
2016-07-01T07:57:01.512Z,1003.74
2016-07-01T07:58:01.534Z,1003.75
2016-07-01T07:59:01.556Z,1003.72
2016-07-01T08:00:01.595Z,1003.68
2016-07-01T08:01:01.616Z,1003.69
2016-07-01T08:02:01.652Z,1003.71
2016-07-01T08:03:01.664Z,1003.72
2016-07-01T08:04:01.699Z,1003.63
2016-07-01T08:05:01.771Z,1003.67
2016-07-01T08:06:01.748Z,1003.66
2016-07-01T08:07:01.778Z,1003.66
2016-07-01T08:08:01.803Z,1003.65
2016-07-01T08:09:01.834Z,1003.67
2016-07-01T08:10:01.880Z,1003.67
2016-07-01T08:11:01.886Z,1003.67
2016-07-01T08:12:01.923Z,1003.72
2016-07-01T08:13:01.948Z,1003.6
2016-07-01T08:14:01.973Z,1003.7
2016-07-01T08:15:02.001Z,1003.74
2016-07-01T08:16:02.024Z,1003.77
2016-07-01T08:17:02.056Z,1003.69
2016-07-01T08:18:02.083Z,1003.71
2016-07-01T08:19:02.103Z,1003.72
2016-07-01T08:20:02.171Z,1003.74
2016-07-01T08:21:02.161Z,1003.76
2016-07-01T08:22:02.189Z,1003.74
2016-07-01T08:23:02.217Z,1003.74
2016-07-01T08:24:02.243Z,1003.78
2016-07-01T08:25:02.271Z,1003.68
2016-07-01T08:26:02.300Z,1003.72
2016-07-01T08:27:02.424Z,1003.71
2016-07-01T08:28:02.358Z,1003.72
2016-07-01T08:29:02.380Z,1003.7
2016-07-01T08:30:02.409Z,1003.73
2016-07-01T08:31:02.445Z,1003.69
2016-07-01T08:32:02.470Z,1003.8
2016-07-01T08:33:02.493Z,1003.77
2016-07-01T08:34:02.523Z,1003.74
2016-07-01T08:35:02.554Z,1003.73
2016-07-01T08:36:02.578Z,1003.69
2016-07-01T08:37:02.606Z,1003.78
2016-07-01T08:38:02.642Z,1003.69
2016-07-01T08:39:02.666Z,1003.69
2016-07-01T08:40:02.695Z,1003.68
2016-07-01T08:41:02.719Z,1003.69
2016-07-01T08:42:02.753Z,1003.64
2016-07-01T08:43:02.779Z,1003.61
2016-07-01T08:44:02.806Z,1003.66
2016-07-01T08:45:02.834Z,1003.65
2016-07-01T08:46:02.869Z,1003.67
2016-07-01T08:47:02.889Z,1003.7
2016-07-01T08:48:02.921Z,1003.69
2016-07-01T08:49:02.950Z,1003.72
2016-07-01T08:50:02.978Z,1003.65
2016-07-01T08:51:03.009Z,1003.68
2016-07-01T08:52:03.035Z,1003.66
2016-07-01T08:53:03.064Z,1003.74
2016-07-01T08:54:03.093Z,1003.71
2016-07-01T08:55:03.116Z,1003.72
2016-07-01T08:56:03.150Z,1003.76
2016-07-01T08:57:03.182Z,1003.73
2016-07-01T08:58:03.205Z,1003.73
2016-07-01T08:59:03.234Z,1003.75
2016-07-01T09:00:03.262Z,1003.73
2016-07-01T09:01:03.295Z,1003.84
2016-07-01T09:02:03.327Z,1003.83
2016-07-01T09:03:03.365Z,1003.77
2016-07-01T09:04:03.376Z,1003.8
2016-07-01T09:05:03.414Z,1003.81
2016-07-01T09:06:03.446Z,1003.75
2016-07-01T09:07:03.468Z,1003.75
2016-07-01T09:08:03.498Z,1003.72
2016-07-01T09:09:03.527Z,1003.71
2016-07-01T09:10:03.560Z,1003.68
2016-07-01T09:11:03.650Z,1003.78
2016-07-01T09:12:03.611Z,1003.71
2016-07-01T09:13:03.642Z,1003.73
2016-07-01T09:14:03.672Z,1003.7
2016-07-01T09:15:03.704Z,1003.65
2016-07-01T09:16:03.745Z,1003.71
2016-07-01T09:17:03.765Z,1003.75
2016-07-01T09:18:03.797Z,1003.68
2016-07-01T09:19:03.825Z,1003.66
2016-07-01T09:20:03.851Z,1003.67
2016-07-01T09:21:03.902Z,1003.65
2016-07-01T09:22:03.913Z,1003.7
2016-07-01T09:23:03.943Z,1003.67
2016-07-01T09:24:03.972Z,1003.64
2016-07-01T09:25:04.006Z,1003.71
2016-07-01T09:26:04.033Z,1003.67
2016-07-01T09:27:04.064Z,1003.71
2016-07-01T09:28:04.095Z,1003.63
2016-07-01T09:29:04.125Z,1003.61
2016-07-01T09:30:04.148Z,1003.62
2016-07-01T09:31:04.179Z,1003.6
2016-07-01T09:32:04.211Z,1003.66
2016-07-01T09:33:04.243Z,1003.67
2016-07-01T09:34:04.286Z,1003.63
2016-07-01T09:35:04.301Z,1003.6
2016-07-01T09:36:04.335Z,1003.67
2016-07-01T09:37:04.366Z,1003.64
2016-07-01T09:38:04.450Z,1003.65
2016-07-01T09:39:04.430Z,1003.62
2016-07-01T09:40:04.483Z,1003.54
2016-07-01T09:41:04.488Z,1003.63
2016-07-01T09:42:04.544Z,1003.63
2016-07-01T09:43:04.605Z,1003.63
2016-07-01T09:44:04.574Z,1003.61
2016-07-01T09:45:04.648Z,1003.51
2016-07-01T09:46:04.659Z,1003.68
2016-07-01T09:47:04.695Z,1003.69
2016-07-01T09:48:04.703Z,1003.72
2016-07-01T09:49:04.771Z,1003.75
2016-07-01T09:50:04.784Z,1003.72
2016-07-01T09:51:04.803Z,1003.66
2016-07-01T09:52:04.867Z,1003.69
2016-07-01T09:53:04.857Z,1003.63
2016-07-01T09:54:04.886Z,1003.68
2016-07-01T09:55:04.922Z,1003.71
2016-07-01T09:56:04.954Z,1003.71
2016-07-01T09:57:04.979Z,1003.69
2016-07-01T09:58:05.016Z,1003.67
2016-07-01T09:59:05.043Z,1003.73
2016-07-01T10:00:05.169Z,1003.72
2016-07-01T10:01:05.102Z,1003.73
2016-07-01T10:02:05.141Z,1003.75
2016-07-01T10:03:05.171Z,1003.75
2016-07-01T10:04:05.202Z,1003.72
2016-07-01T10:05:05.230Z,1003.71
2016-07-01T10:06:05.276Z,1003.7
2016-07-01T10:07:05.294Z,1003.68
2016-07-01T10:08:05.324Z,1003.64
2016-07-01T10:09:05.360Z,1003.78
2016-07-01T10:10:05.392Z,1003.69
2016-07-01T10:11:05.418Z,1003.65
2016-07-01T10:12:05.457Z,1003.8
2016-07-01T10:13:05.490Z,1003.75
2016-07-01T10:14:05.631Z,1003.71
2016-07-01T10:15:05.647Z,1003.73
2016-07-01T10:16:05.682Z,1003.69
2016-07-01T10:17:05.695Z,1003.74
2016-07-01T10:18:05.706Z,1003.7
2016-07-01T10:19:05.706Z,1003.71
2016-07-01T10:20:05.711Z,1003.69
2016-07-01T10:21:05.781Z,1003.61
2016-07-01T10:22:05.792Z,1003.67
2016-07-01T10:23:05.903Z,1003.68
2016-07-01T10:24:05.910Z,1003.69
2016-07-01T10:25:05.948Z,1003.69
2016-07-01T10:26:05.957Z,1003.69
2016-07-01T10:27:05.967Z,1003.61
2016-07-01T10:28:05.974Z,1003.61
2016-07-01T10:29:06.002Z,1003.65
2016-07-01T10:30:06.041Z,1003.64
2016-07-01T10:31:06.069Z,1003.62
2016-07-01T10:32:06.098Z,1003.66
2016-07-01T10:33:06.133Z,1003.64
2016-07-01T10:34:06.173Z,1003.63
2016-07-01T10:35:06.194Z,1003.59
2016-07-01T10:36:06.230Z,1003.59
2016-07-01T10:37:06.266Z,1003.6
2016-07-01T10:38:06.347Z,1003.55
2016-07-01T10:39:06.326Z,1003.51
2016-07-01T10:40:06.361Z,1003.51
2016-07-01T10:41:06.394Z,1003.54
2016-07-01T10:42:06.431Z,1003.52
2016-07-01T10:43:06.461Z,1003.48
2016-07-01T10:44:06.500Z,1003.55
2016-07-01T10:45:06.528Z,1003.59
2016-07-01T10:46:06.562Z,1003.59
2016-07-01T10:47:06.601Z,1003.62
2016-07-01T10:48:06.646Z,1003.6
2016-07-01T10:49:06.678Z,1003.56
2016-07-01T10:50:06.711Z,1003.59
2016-07-01T10:51:06.733Z,1003.55
2016-07-01T10:52:06.765Z,1003.53
2016-07-01T10:53:06.795Z,1003.51
2016-07-01T10:54:06.831Z,1003.58
2016-07-01T10:55:06.866Z,1003.53
2016-07-01T10:56:06.898Z,1003.58
2016-07-01T10:57:06.943Z,1003.56
2016-07-01T10:58:06.964Z,1003.53
2016-07-01T10:59:07.215Z,1003.53
2016-07-01T11:00:07.038Z,1003.48
2016-07-01T11:01:07.063Z,1003.56
2016-07-01T11:02:07.100Z,1003.46
2016-07-01T11:03:07.133Z,1003.5
2016-07-01T11:04:07.169Z,1003.47
2016-07-01T11:05:07.207Z,1003.52
2016-07-01T11:06:07.233Z,1003.45
2016-07-01T11:07:07.278Z,1003.47
2016-07-01T11:08:07.304Z,1003.43
2016-07-01T11:09:07.339Z,1003.43
2016-07-01T11:10:07.376Z,1003.44
2016-07-01T11:11:07.408Z,1003.44
2016-07-01T11:12:07.440Z,1003.43
2016-07-01T11:13:07.477Z,1003.44
2016-07-01T11:14:07.512Z,1003.47
2016-07-01T11:15:07.543Z,1003.46
2016-07-01T11:16:07.573Z,1003.5
2016-07-01T11:17:07.613Z,1003.5
2016-07-01T11:18:07.641Z,1003.45
2016-07-01T11:19:07.678Z,1003.47
2016-07-01T11:20:07.713Z,1003.45
2016-07-01T11:21:07.760Z,1003.43
2016-07-01T11:22:07.782Z,1003.37
2016-07-01T11:23:07.817Z,1003.4
2016-07-01T11:24:07.859Z,1003.37
2016-07-01T11:25:07.902Z,1003.41
2016-07-01T11:26:07.934Z,1003.38
2016-07-01T11:27:07.955Z,1003.4
2016-07-01T11:28:07.989Z,1003.45
2016-07-01T11:29:08.114Z,1003.38
2016-07-01T11:30:08.062Z,1003.4
2016-07-01T11:31:08.091Z,1003.35
2016-07-01T11:32:08.129Z,1003.34
2016-07-01T11:33:08.162Z,1003.35
2016-07-01T11:34:08.198Z,1003.35
2016-07-01T11:35:08.234Z,1003.36
2016-07-01T11:36:08.261Z,1003.38
2016-07-01T11:37:08.300Z,1003.39
2016-07-01T11:38:08.331Z,1003.41
2016-07-01T11:39:08.374Z,1003.44
2016-07-01T11:40:08.419Z,1003.47
2016-07-01T11:41:08.474Z,1003.44
2016-07-01T11:42:08.468Z,1003.41
2016-07-01T11:43:08.509Z,1003.43
2016-07-01T11:44:08.906Z,1003.42
2016-07-01T11:45:08.585Z,1003.34
2016-07-01T11:46:08.607Z,1003.41
2016-07-01T11:47:08.651Z,1003.4
2016-07-01T11:48:08.686Z,1003.4
2016-07-01T11:49:08.719Z,1003.39
2016-07-01T11:50:08.753Z,1003.35
2016-07-01T11:51:08.782Z,1003.29
2016-07-01T11:52:08.823Z,1003.32
2016-07-01T11:53:08.859Z,1003.26
2016-07-01T11:54:08.889Z,1003.26
2016-07-01T11:55:08.927Z,1003.24
2016-07-01T11:56:08.959Z,1003.22
2016-07-01T11:57:08.992Z,1003.29
2016-07-01T11:58:09.027Z,1003.23
2016-07-01T11:59:09.063Z,1003.22
2016-07-01T12:00:09.103Z,1003.21
2016-07-01T12:01:09.135Z,1003.23
2016-07-01T12:02:09.170Z,1003.24
2016-07-01T12:03:09.211Z,1003.22
2016-07-01T12:04:09.240Z,1003.17
2016-07-01T12:05:09.279Z,1003.24
2016-07-01T12:06:09.308Z,1003.21
2016-07-01T12:07:10.023Z,1003.18
2016-07-01T12:08:09.381Z,1003.21
2016-07-01T12:09:09.421Z,1003.13